sensor_id;sensor_type;location;lat;lon;timestamp;pressure;altitude;pressure_sealevel;temperature;humidity
48404;BME280;34202;52.536;6.042;2022-12-05T00:03:25;102025.88;;;3.49;100.00
48404;BME280;34202;52.536;6.042;2022-12-05T00:08:26;102026.48;;;3.51;100.00
48404;BME280;34202;52.536;6.042;2022-12-05T00:13:26;102025.68;;;3.52;100.00
48404;BME280;34202;52.536;6.042;2022-12-05T00:18:26;102021.45;;;3.53;100.00
48404;BME280;34202;52.536;6.042;2022-12-05T00:23:26;102025.50;;;3.55;100.00
48404;BME280;34202;52.536;6.042;2022-12-05T00:28:27;102023.25;;;3.55;100.00
48404;BME280;34202;52.536;6.042;2022-12-05T00:33:27;102020.81;;;3.54;100.00
48404;BME280;34202;52.536;6.042;2022-12-05T00:38:27;102013.05;;;3.54;100.00
48404;BME280;34202;52.536;6.042;2022-12-05T00:43:28;102018.29;;;3.55;100.00
48404;BME280;34202;52.536;6.042;2022-12-05T00:48:29;102018.13;;;3.55;100.00
48404;BME280;34202;52.536;6.042;2022-12-05T00:53:30;102020.08;;;3.56;100.00
48404;BME280;34202;52.536;6.042;2022-12-05T00:58:31;102022.36;;;3.57;100.00
48404;BME280;34202;52.536;6.042;2022-12-05T01:03:32;102020.02;;;3.59;100.00
48404;BME280;34202;52.536;6.042;2022-12-05T01:08:33;102024.05;;;3.60;100.00
48404;BME280;34202;52.536;6.042;2022-12-05T01:13:34;102027.55;;;3.61;100.00
48404;BME280;34202;52.536;6.042;2022-12-05T01:18:35;102031.36;;;3.61;100.00
48404;BME280;34202;52.536;6.042;2022-12-05T01:23:35;102027.83;;;3.63;100.00
48404;BME280;34202;52.536;6.042;2022-12-05T01:28:35;102027.91;;;3.64;100.00
48404;BME280;34202;52.536;6.042;2022-12-05T01:33:36;102032.66;;;3.66;100.00
48404;BME280;34202;52.536;6.042;2022-12-05T01:38:41;102030.98;;;3.67;100.00
48404;BME280;34202;52.536;6.042;2022-12-05T01:49:06;102034.36;;;3.69;100.00
48404;BME280;34202;52.536;6.042;2022-12-05T01:54:09;102033.48;;;3.69;100.00
48404;BME280;34202;52.536;6.042;2022-12-05T01:59:11;102038.33;;;3.69;100.00
48404;BME280;34202;52.536;6.042;2022-12-05T02:04:12;102035.44;;;3.70;100.00
48404;BME280;34202;52.536;6.042;2022-12-05T02:09:13;102036.23;;;3.72;100.00
48404;BME280;34202;52.536;6.042;2022-12-05T02:30:23;102019.38;;;3.79;100.00
48404;BME280;34202;52.536;6.042;2022-12-05T02:35:36;102016.02;;;3.80;100.00
48404;BME280;34202;52.536;6.042;2022-12-05T02:40:50;102012.17;;;3.83;100.00
48404;BME280;34202;52.536;6.042;2022-12-05T02:45:57;102011.48;;;3.85;100.00
48404;BME280;34202;52.536;6.042;2022-12-05T02:51:01;102008.98;;;3.87;100.00
48404;BME280;34202;52.536;6.042;2022-12-05T02:56:04;102007.35;;;3.89;100.00
48404;BME280;34202;52.536;6.042;2022-12-05T03:01:05;102009.36;;;3.92;100.00
48404;BME280;34202;52.536;6.042;2022-12-05T03:06:13;102007.08;;;3.94;100.00
48404;BME280;34202;52.536;6.042;2022-12-05T03:11:15;101999.77;;;3.96;100.00
48404;BME280;34202;52.536;6.042;2022-12-05T03:16:22;102002.78;;;3.97;100.00
48404;BME280;34202;52.536;6.042;2022-12-05T03:32:36;102009.23;;;4.02;100.00
48404;BME280;34202;52.536;6.042;2022-12-05T03:37:54;102013.03;;;4.02;100.00
48404;BME280;34202;52.536;6.042;2022-12-05T03:43:10;102025.02;;;4.04;100.00
48404;BME280;34202;52.536;6.042;2022-12-05T03:48:14;102025.34;;;4.07;100.00
48404;BME280;34202;52.536;6.042;2022-12-05T03:53:23;102029.59;;;4.09;100.00
48404;BME280;34202;52.536;6.042;2022-12-05T03:58:29;102028.05;;;4.10;100.00
48404;BME280;34202;52.536;6.042;2022-12-05T04:03:40;102021.52;;;4.10;100.00
48404;BME280;34202;52.536;6.042;2022-12-05T04:08:47;102018.93;;;4.10;100.00
48404;BME280;34202;52.536;6.042;2022-12-05T04:14:04;102018.61;;;4.11;100.00
48404;BME280;34202;52.536;6.042;2022-12-05T04:24:29;102019.66;;;4.14;100.00
48404;BME280;34202;52.536;6.042;2022-12-05T04:29:57;102028.75;;;4.16;100.00
48404;BME280;34202;52.536;6.042;2022-12-05T04:35:05;102036.42;;;4.18;100.00
48404;BME280;34202;52.536;6.042;2022-12-05T04:40:18;102033.48;;;4.21;100.00
48404;BME280;34202;52.536;6.042;2022-12-05T04:45:21;102030.86;;;4.24;100.00
48404;BME280;34202;52.536;6.042;2022-12-05T04:50:26;102027.39;;;4.27;100.00
48404;BME280;34202;52.536;6.042;2022-12-05T04:55:29;102025.65;;;4.30;100.00
48404;BME280;34202;52.536;6.042;2022-12-05T05:00:36;102015.92;;;4.32;100.00
48404;BME280;34202;52.536;6.042;2022-12-05T05:05:39;102013.44;;;4.34;100.00
48404;BME280;34202;52.536;6.042;2022-12-05T05:10:50;102006.08;;;4.35;100.00
48404;BME280;34202;52.536;6.042;2022-12-05T05:15:51;101998.04;;;4.36;100.00
48404;BME280;34202;52.536;6.042;2022-12-05T05:20:52;102006.04;;;4.37;100.00
48404;BME280;34202;52.536;6.042;2022-12-05T05:25:53;102015.20;;;4.38;100.00
48404;BME280;34202;52.536;6.042;2022-12-05T05:30:54;102022.23;;;4.41;100.00
48404;BME280;34202;52.536;6.042;2022-12-05T05:35:55;102020.08;;;4.42;100.00
48404;BME280;34202;52.536;6.042;2022-12-05T05:40:55;102017.59;;;4.44;100.00
48404;BME280;34202;52.536;6.042;2022-12-05T05:45:55;102013.86;;;4.45;100.00
48404;BME280;34202;52.536;6.042;2022-12-05T05:51:00;102019.10;;;4.47;100.00
48404;BME280;34202;52.536;6.042;2022-12-05T05:56:05;102020.35;;;4.48;100.00
48404;BME280;34202;52.536;6.042;2022-12-05T06:06:13;102029.38;;;4.53;100.00
48404;BME280;34202;52.536;6.042;2022-12-05T06:11:17;102032.09;;;4.55;100.00
48404;BME280;34202;52.536;6.042;2022-12-05T06:16:18;102030.11;;;4.57;100.00
48404;BME280;34202;52.536;6.042;2022-12-05T06:21:19;102027.80;;;4.59;100.00
48404;BME280;34202;52.536;6.042;2022-12-05T06:26:21;102027.74;;;4.61;100.00
48404;BME280;34202;52.536;6.042;2022-12-05T06:31:23;102027.46;;;4.62;100.00
48404;BME280;34202;52.536;6.042;2022-12-05T06:36:26;102032.08;;;4.65;100.00
48404;BME280;34202;52.536;6.042;2022-12-05T06:41:27;102029.99;;;4.69;100.00
48404;BME280;34202;52.536;6.042;2022-12-05T06:46:27;102028.21;;;4.71;100.00
48404;BME280;34202;52.536;6.042;2022-12-05T06:51:28;102026.56;;;4.73;100.00
48404;BME280;34202;52.536;6.042;2022-12-05T06:56:28;102029.63;;;4.75;100.00
48404;BME280;34202;52.536;6.042;2022-12-05T07:01:28;102029.35;;;4.76;100.00
48404;BME280;34202;52.536;6.042;2022-12-05T07:06:39;102032.02;;;4.78;100.00
48404;BME280;34202;52.536;6.042;2022-12-05T07:11:40;102030.67;;;4.79;100.00
48404;BME280;34202;52.536;6.042;2022-12-05T07:16:40;102037.20;;;4.78;100.00
48404;BME280;34202;52.536;6.042;2022-12-05T07:21:41;102048.86;;;4.80;100.00
48404;BME280;34202;52.536;6.042;2022-12-05T07:26:41;102051.02;;;4.81;100.00
48404;BME280;34202;52.536;6.042;2022-12-05T07:31:41;102055.75;;;4.83;100.00
48404;BME280;34202;52.536;6.042;2022-12-05T07:36:42;102054.27;;;4.85;100.00
48404;BME280;34202;52.536;6.042;2022-12-05T07:41:42;102052.09;;;4.87;100.00
48404;BME280;34202;52.536;6.042;2022-12-05T07:46:42;102051.20;;;4.89;100.00
48404;BME280;34202;52.536;6.042;2022-12-05T07:51:43;102050.42;;;4.91;100.00
48404;BME280;34202;52.536;6.042;2022-12-05T07:56:43;102047.42;;;4.93;100.00
48404;BME280;34202;52.536;6.042;2022-12-05T08:01:43;102052.86;;;4.95;100.00
48404;BME280;34202;52.536;6.042;2022-12-05T08:06:43;102060.39;;;4.97;100.00
48404;BME280;34202;52.536;6.042;2022-12-05T08:11:44;102064.44;;;4.99;100.00
48404;BME280;34202;52.536;6.042;2022-12-05T08:16:44;102066.26;;;5.01;100.00
48404;BME280;34202;52.536;6.042;2022-12-05T08:21:45;102069.15;;;5.03;100.00
48404;BME280;34202;52.536;6.042;2022-12-05T08:26:45;102069.21;;;5.05;100.00
48404;BME280;34202;52.536;6.042;2022-12-05T08:31:48;102073.77;;;5.06;100.00
48404;BME280;34202;52.536;6.042;2022-12-05T08:36:49;102080.89;;;5.07;100.00
48404;BME280;34202;52.536;6.042;2022-12-05T08:41:49;102087.04;;;5.09;100.00
48404;BME280;34202;52.536;6.042;2022-12-05T08:46:50;102088.36;;;5.12;100.00
48404;BME280;34202;52.536;6.042;2022-12-05T08:51:50;102092.05;;;5.13;100.00
48404;BME280;34202;52.536;6.042;2022-12-05T08:56:51;102093.27;;;5.13;100.00
48404;BME280;34202;52.536;6.042;2022-12-05T09:01:51;102090.95;;;5.15;100.00
48404;BME280;34202;52.536;6.042;2022-12-05T09:06:51;102095.21;;;5.18;100.00
48404;BME280;34202;52.536;6.042;2022-12-05T09:11:52;102100.80;;;5.19;100.00
48404;BME280;34202;52.536;6.042;2022-12-05T09:16:52;102100.03;;;5.21;100.00
48404;BME280;34202;52.536;6.042;2022-12-05T09:21:54;102102.29;;;5.21;100.00
48404;BME280;34202;52.536;6.042;2022-12-05T09:26:55;102108.38;;;5.22;100.00
48404;BME280;34202;52.536;6.042;2022-12-05T09:31:55;102109.62;;;5.23;100.00
48404;BME280;34202;52.536;6.042;2022-12-05T09:36:55;102114.14;;;5.23;100.00
48404;BME280;34202;52.536;6.042;2022-12-05T09:52:33;102119.02;;;5.25;100.00
48404;BME280;34202;52.536;6.042;2022-12-05T09:57:38;102122.48;;;5.25;100.00
48404;BME280;34202;52.536;6.042;2022-12-05T10:08:13;102124.77;;;5.26;100.00
48404;BME280;34202;52.536;6.042;2022-12-05T10:18:39;102118.45;;;5.27;100.00
48404;BME280;34202;52.536;6.042;2022-12-05T10:28:59;102112.48;;;5.29;100.00
48404;BME280;34202;52.536;6.042;2022-12-05T10:34:09;102106.24;;;5.28;100.00
48404;BME280;34202;52.536;6.042;2022-12-05T10:39:12;102109.14;;;5.28;100.00
48404;BME280;34202;52.536;6.042;2022-12-05T10:44:12;102108.55;;;5.26;100.00
48404;BME280;34202;52.536;6.042;2022-12-05T10:49:12;102106.15;;;5.23;100.00
48404;BME280;34202;52.536;6.042;2022-12-05T10:54:21;102110.21;;;5.21;100.00
48404;BME280;34202;52.536;6.042;2022-12-05T10:59:25;102104.91;;;5.18;100.00
48404;BME280;34202;52.536;6.042;2022-12-05T11:04:43;102104.08;;;5.15;100.00
48404;BME280;34202;52.536;6.042;2022-12-05T11:09:46;102103.33;;;5.14;100.00
48404;BME280;34202;52.536;6.042;2022-12-05T11:25:33;102104.67;;;5.07;100.00
48404;BME280;34202;52.536;6.042;2022-12-05T11:30:34;102096.98;;;5.05;100.00
48404;BME280;34202;52.536;6.042;2022-12-05T11:35:34;102102.23;;;5.03;100.00
48404;BME280;34202;52.536;6.042;2022-12-05T11:40:54;102100.81;;;5.01;100.00
48404;BME280;34202;52.536;6.042;2022-12-05T11:51:36;102102.59;;;4.99;100.00
48404;BME280;34202;52.536;6.042;2022-12-05T11:56:42;102095.65;;;4.98;100.00
48404;BME280;34202;52.536;6.042;2022-12-05T12:02:11;102092.73;;;4.99;100.00
48404;BME280;34202;52.536;6.042;2022-12-05T12:17:46;102082.58;;;4.99;100.00
48404;BME280;34202;52.536;6.042;2022-12-05T12:23:14;102086.16;;;4.98;100.00
48404;BME280;34202;52.536;6.042;2022-12-05T12:28:36;102089.08;;;4.98;100.00
48404;BME280;34202;52.536;6.042;2022-12-05T12:39:12;102087.73;;;4.96;100.00
48404;BME280;34202;52.536;6.042;2022-12-05T12:55:04;102077.40;;;4.92;100.00
48404;BME280;34202;52.536;6.042;2022-12-05T13:00:29;102068.73;;;4.92;100.00
48404;BME280;34202;52.536;6.042;2022-12-05T13:05:40;102062.68;;;4.91;100.00
48404;BME280;34202;52.536;6.042;2022-12-05T13:10:44;102060.90;;;4.90;100.00
48404;BME280;34202;52.536;6.042;2022-12-05T13:15:57;102060.21;;;4.90;100.00
48404;BME280;34202;52.536;6.042;2022-12-05T13:21:05;102055.42;;;4.91;100.00
48404;BME280;34202;52.536;6.042;2022-12-05T13:26:08;102060.30;;;4.92;100.00
48404;BME280;34202;52.536;6.042;2022-12-05T13:31:10;102061.02;;;4.93;100.00
48404;BME280;34202;52.536;6.042;2022-12-05T13:36:20;102069.88;;;4.94;100.00
48404;BME280;34202;52.536;6.042;2022-12-05T13:41:42;102066.83;;;4.94;100.00
48404;BME280;34202;52.536;6.042;2022-12-05T13:47:03;102067.20;;;4.95;100.00
48404;BME280;34202;52.536;6.042;2022-12-05T13:52:11;102061.88;;;4.96;100.00
48404;BME280;34202;52.536;6.042;2022-12-05T13:57:54;102060.71;;;4.97;100.00
48404;BME280;34202;52.536;6.042;2022-12-05T14:03:04;102067.52;;;4.98;100.00
48404;BME280;34202;52.536;6.042;2022-12-05T14:18:59;102071.90;;;5.00;100.00
48404;BME280;34202;52.536;6.042;2022-12-05T14:24:06;102072.58;;;4.99;100.00
48404;BME280;34202;52.536;6.042;2022-12-05T14:29:51;102072.45;;;5.00;100.00
48404;BME280;34202;52.536;6.042;2022-12-05T14:40:17;102071.13;;;5.01;100.00
48404;BME280;34202;52.536;6.042;2022-12-05T14:45:39;102064.23;;;5.02;100.00
48404;BME280;34202;52.536;6.042;2022-12-05T14:50:49;102064.63;;;5.03;100.00
48404;BME280;34202;52.536;6.042;2022-12-05T14:55:56;102063.22;;;5.02;100.00
48404;BME280;34202;52.536;6.042;2022-12-05T15:01:06;102067.48;;;5.01;100.00
48404;BME280;34202;52.536;6.042;2022-12-05T15:06:13;102072.29;;;5.00;100.00
48404;BME280;34202;52.536;6.042;2022-12-05T15:11:17;102072.73;;;4.99;100.00
48404;BME280;34202;52.536;6.042;2022-12-05T15:16:27;102078.86;;;4.97;100.00
48404;BME280;34202;52.536;6.042;2022-12-05T15:21:39;102082.79;;;4.97;100.00
48404;BME280;34202;52.536;6.042;2022-12-05T15:26:43;102083.10;;;4.96;100.00
48404;BME280;34202;52.536;6.042;2022-12-05T15:31:48;102086.53;;;4.96;100.00
48404;BME280;34202;52.536;6.042;2022-12-05T15:36:54;102094.27;;;4.95;100.00
48404;BME280;34202;52.536;6.042;2022-12-05T15:41:56;102088.95;;;4.95;100.00
48404;BME280;34202;52.536;6.042;2022-12-05T15:46:57;102092.04;;;4.95;100.00
48404;BME280;34202;52.536;6.042;2022-12-05T15:52:23;102095.80;;;4.95;100.00
48404;BME280;34202;52.536;6.042;2022-12-05T15:57:36;102098.38;;;4.94;100.00
48404;BME280;34202;52.536;6.042;2022-12-05T16:02:45;102098.73;;;4.94;100.00
48404;BME280;34202;52.536;6.042;2022-12-05T16:07:48;102094.59;;;4.94;100.00
48404;BME280;34202;52.536;6.042;2022-12-05T16:12:50;102100.58;;;4.93;100.00
48404;BME280;34202;52.536;6.042;2022-12-05T16:17:54;102103.66;;;4.93;100.00
48404;BME280;34202;52.536;6.042;2022-12-05T16:22:57;102103.93;;;4.92;100.00
48404;BME280;34202;52.536;6.042;2022-12-05T16:28:19;102106.95;;;4.90;100.00
48404;BME280;34202;52.536;6.042;2022-12-05T16:33:20;102101.77;;;4.90;100.00
48404;BME280;34202;52.536;6.042;2022-12-05T16:38:27;102103.42;;;4.88;100.00
48404;BME280;34202;52.536;6.042;2022-12-05T16:48:31;102109.66;;;4.85;100.00
48404;BME280;34202;52.536;6.042;2022-12-05T16:53:31;102107.16;;;4.83;100.00
48404;BME280;34202;52.536;6.042;2022-12-05T16:58:34;102113.17;;;4.83;100.00
48404;BME280;34202;52.536;6.042;2022-12-05T17:03:34;102112.30;;;4.83;100.00
48404;BME280;34202;52.536;6.042;2022-12-05T17:08:35;102118.88;;;4.83;100.00
48404;BME280;34202;52.536;6.042;2022-12-05T17:13:35;102119.20;;;4.83;100.00
48404;BME280;34202;52.536;6.042;2022-12-05T17:18:35;102121.83;;;4.84;100.00
48404;BME280;34202;52.536;6.042;2022-12-05T17:23:36;102121.54;;;4.85;100.00
48404;BME280;34202;52.536;6.042;2022-12-05T17:28:36;102125.90;;;4.86;100.00
48404;BME280;34202;52.536;6.042;2022-12-05T17:33:37;102122.64;;;4.86;100.00
48404;BME280;34202;52.536;6.042;2022-12-05T17:38:38;102120.42;;;4.87;100.00
48404;BME280;34202;52.536;6.042;2022-12-05T17:43:38;102121.92;;;4.86;100.00
48404;BME280;34202;52.536;6.042;2022-12-05T17:48:38;102127.35;;;4.88;100.00
48404;BME280;34202;52.536;6.042;2022-12-05T17:53:39;102133.15;;;4.89;100.00
48404;BME280;34202;52.536;6.042;2022-12-05T17:58:41;102136.71;;;4.92;100.00
48404;BME280;34202;52.536;6.042;2022-12-05T18:03:41;102134.45;;;4.91;100.00
48404;BME280;34202;52.536;6.042;2022-12-05T18:08:42;102137.42;;;4.92;100.00
48404;BME280;34202;52.536;6.042;2022-12-05T18:13:44;102141.27;;;4.93;100.00
48404;BME280;34202;52.536;6.042;2022-12-05T18:18:44;102142.15;;;4.94;100.00
48404;BME280;34202;52.536;6.042;2022-12-05T18:23:44;102145.83;;;4.94;100.00
48404;BME280;34202;52.536;6.042;2022-12-05T18:28:45;102147.23;;;4.95;100.00
48404;BME280;34202;52.536;6.042;2022-12-05T18:33:46;102149.68;;;4.96;100.00
48404;BME280;34202;52.536;6.042;2022-12-05T18:38:51;102148.23;;;4.94;100.00
48404;BME280;34202;52.536;6.042;2022-12-05T18:43:52;102152.17;;;4.94;100.00
48404;BME280;34202;52.536;6.042;2022-12-05T18:48:53;102159.02;;;4.93;100.00
48404;BME280;34202;52.536;6.042;2022-12-05T18:53:53;102161.21;;;4.92;100.00
48404;BME280;34202;52.536;6.042;2022-12-05T18:58:58;102167.02;;;4.91;100.00
48404;BME280;34202;52.536;6.042;2022-12-05T19:04:00;102163.98;;;4.88;100.00
48404;BME280;34202;52.536;6.042;2022-12-05T19:09:06;102165.16;;;4.88;100.00
48404;BME280;34202;52.536;6.042;2022-12-05T19:14:08;102167.02;;;4.87;100.00
48404;BME280;34202;52.536;6.042;2022-12-05T19:19:11;102166.99;;;4.87;100.00
48404;BME280;34202;52.536;6.042;2022-12-05T19:24:14;102167.46;;;4.89;100.00
48404;BME280;34202;52.536;6.042;2022-12-05T19:29:15;102175.96;;;4.90;100.00
48404;BME280;34202;52.536;6.042;2022-12-05T19:34:15;102179.98;;;4.91;100.00
48404;BME280;34202;52.536;6.042;2022-12-05T19:39:18;102183.79;;;4.91;100.00
48404;BME280;34202;52.536;6.042;2022-12-05T19:44:19;102189.30;;;4.91;100.00
48404;BME280;34202;52.536;6.042;2022-12-05T19:49:19;102186.73;;;4.91;100.00
48404;BME280;34202;52.536;6.042;2022-12-05T19:54:22;102184.77;;;4.90;100.00
48404;BME280;34202;52.536;6.042;2022-12-05T19:59:23;102180.73;;;4.89;100.00
48404;BME280;34202;52.536;6.042;2022-12-05T20:04:23;102180.50;;;4.88;100.00
48404;BME280;34202;52.536;6.042;2022-12-05T20:09:24;102182.40;;;4.88;100.00
48404;BME280;34202;52.536;6.042;2022-12-05T20:14:24;102182.88;;;4.87;100.00
48404;BME280;34202;52.536;6.042;2022-12-05T20:19:25;102184.73;;;4.86;100.00
48404;BME280;34202;52.536;6.042;2022-12-05T20:24:25;102182.45;;;4.85;100.00
48404;BME280;34202;52.536;6.042;2022-12-05T20:29:25;102183.16;;;4.85;100.00
48404;BME280;34202;52.536;6.042;2022-12-05T20:34:26;102184.04;;;4.86;100.00
48404;BME280;34202;52.536;6.042;2022-12-05T20:39:26;102186.50;;;4.87;100.00
48404;BME280;34202;52.536;6.042;2022-12-05T20:44:28;102183.41;;;4.87;100.00
48404;BME280;34202;52.536;6.042;2022-12-05T20:49:29;102186.75;;;4.89;100.00
48404;BME280;34202;52.536;6.042;2022-12-05T20:54:29;102183.01;;;4.90;100.00
48404;BME280;34202;52.536;6.042;2022-12-05T20:59:29;102178.23;;;4.91;100.00
48404;BME280;34202;52.536;6.042;2022-12-05T21:04:29;102178.05;;;4.90;100.00
48404;BME280;34202;52.536;6.042;2022-12-05T21:09:30;102178.60;;;4.91;100.00
48404;BME280;34202;52.536;6.042;2022-12-05T21:14:30;102182.10;;;4.92;100.00
48404;BME280;34202;52.536;6.042;2022-12-05T21:19:33;102177.67;;;4.93;100.00
48404;BME280;34202;52.536;6.042;2022-12-05T21:24:33;102174.16;;;4.95;100.00
48404;BME280;34202;52.536;6.042;2022-12-05T21:29:33;102167.84;;;4.97;100.00
48404;BME280;34202;52.536;6.042;2022-12-05T21:34:34;102171.02;;;4.98;100.00
48404;BME280;34202;52.536;6.042;2022-12-05T21:39:34;102167.58;;;4.98;100.00
48404;BME280;34202;52.536;6.042;2022-12-05T21:44:35;102167.95;;;4.98;100.00
48404;BME280;34202;52.536;6.042;2022-12-05T21:49:35;102169.18;;;4.99;100.00
48404;BME280;34202;52.536;6.042;2022-12-05T21:54:35;102177.67;;;5.00;100.00
48404;BME280;34202;52.536;6.042;2022-12-05T21:59:36;102177.99;;;4.99;100.00
48404;BME280;34202;52.536;6.042;2022-12-05T22:04:36;102177.58;;;4.98;100.00
48404;BME280;34202;52.536;6.042;2022-12-05T22:09:37;102177.91;;;4.98;100.00
48404;BME280;34202;52.536;6.042;2022-12-05T22:14:37;102177.70;;;4.97;100.00
48404;BME280;34202;52.536;6.042;2022-12-05T22:19:37;102174.17;;;4.96;100.00
48404;BME280;34202;52.536;6.042;2022-12-05T22:24:37;102173.38;;;4.97;100.00
48404;BME280;34202;52.536;6.042;2022-12-05T22:29:38;102182.20;;;4.97;100.00
48404;BME280;34202;52.536;6.042;2022-12-05T22:34:38;102179.33;;;4.98;100.00
48404;BME280;34202;52.536;6.042;2022-12-05T22:39:38;102179.09;;;4.97;100.00
48404;BME280;34202;52.536;6.042;2022-12-05T22:44:39;102182.13;;;4.96;100.00
48404;BME280;34202;52.536;6.042;2022-12-05T22:49:39;102186.77;;;4.96;100.00
48404;BME280;34202;52.536;6.042;2022-12-05T22:54:39;102182.77;;;4.95;100.00
48404;BME280;34202;52.536;6.042;2022-12-05T22:59:40;102179.52;;;4.95;100.00
48404;BME280;34202;52.536;6.042;2022-12-05T23:04:40;102178.36;;;4.96;100.00
48404;BME280;34202;52.536;6.042;2022-12-05T23:09:40;102175.09;;;4.97;100.00
48404;BME280;34202;52.536;6.042;2022-12-05T23:14:41;102169.73;;;4.96;100.00
48404;BME280;34202;52.536;6.042;2022-12-05T23:19:41;102168.35;;;4.96;100.00
48404;BME280;34202;52.536;6.042;2022-12-05T23:24:42;102171.26;;;4.96;100.00
48404;BME280;34202;52.536;6.042;2022-12-05T23:29:42;102173.83;;;4.96;100.00
48404;BME280;34202;52.536;6.042;2022-12-05T23:34:43;102174.80;;;4.94;100.00
48404;BME280;34202;52.536;6.042;2022-12-05T23:39:43;102171.77;;;4.92;100.00
48404;BME280;34202;52.536;6.042;2022-12-05T23:44:43;102169.48;;;4.91;100.00
48404;BME280;34202;52.536;6.042;2022-12-05T23:49:44;102169.91;;;4.90;100.00
48404;BME280;34202;52.536;6.042;2022-12-05T23:54:45;102165.05;;;4.89;100.00
48404;BME280;34202;52.536;6.042;2022-12-05T23:59:45;102155.59;;;4.90;100.00
